Weather History for Heber, UT

Change the Weather History Date:

Tuesday, July 9, 2013

  Actual Average (KPVU) Record (KPVU)
Temperature  
Mean Temperature 73 °F -  
Max Temperature 95 °F 89 °F 96 °F (1989)
Min Temperature 51 °F 57 °F 53 °F (2003)
Cooling Degree Days 8    
Growing Degree Days 23 (Base 50)    
Moisture  
Dew Point 41 °F    
Average Humidity 45    
Maximum Humidity 88    
Minimum Humidity 9    
Precipitation  
Precipitation 0.00 in - - ()
Sea Level Pressure  
Sea Level Pressure 30.23 in    
Wind  
Wind Speed 3 mph (SW)    
Max Wind Speed 15 mph    
Max Gust Speed 22 mph    
Visibility 10 miles    
Events      
Averages and records for this station are not official NWS values.
T = Trace of Precipitation, MM = Missing Value Source: NWS Daily Summary

Daily Weather History Graph

Daily Weather History Graph

Search for Another Location

Airport:

Trip Planner

Search our weather history database for the weather conditions in past years. The results will help you decide how hot, cold, wet, or windy it might be!

Date:

Astronomy

Jul. 09, 2013 Rise Set
Actual Time 6:03 AM MDT 8:57 PM MDT
Civil Twilight 5:31 AM MDT 9:30 PM MDT
Nautical Twilight 4:50 AM MDT 10:11 PM MDT
Astronomical Twilight 4:02 AM MDT 10:58 PM MDT
Moon 7:32 AM MDT (7/9) 9:36 PM MDT (7/9)
Length of Visible Light 15h 58m
Length of Day
14h 53m
New Moon, 2% of the Moon is Illuminated
Jul 9
New Moon
Jul 15
First Quarter
Jul 22
Full
Jul 29
Last Quarter
Aug 6
New

Hourly Weather History & Observations

Time (MDT) Temp. Dew Point Humidity Pressure Visibility Wind Dir Wind Speed Gust Speed Precip Events Conditions
12:15 AM 60.8 °F 48.2 °F 63% 30.21 in 10.0 mi Calm Calm - N/A   Clear
12:35 AM 60.8 °F 46.4 °F 59% 30.21 in 10.0 mi SSW 4.6 mph - N/A   Clear
12:55 AM 57.2 °F 50.0 °F 77% 30.22 in 10.0 mi Calm Calm - N/A   Clear
1:15 AM 57.2 °F 48.2 °F 72% 30.22 in 10.0 mi Calm Calm - N/A   Clear
1:35 AM 57.2 °F 50.0 °F 77% 30.22 in 10.0 mi Calm Calm - N/A   Clear
1:55 AM 59.0 °F 48.2 °F 67% 30.23 in 10.0 mi Calm Calm - N/A   Clear
2:15 AM 57.2 °F 50.0 °F 77% 30.22 in 10.0 mi East 4.6 mph - N/A   Clear
2:35 AM 55.4 °F 50.0 °F 82% 30.22 in 10.0 mi Calm Calm - N/A   Clear
2:55 AM 55.4 °F 50.0 °F 82% 30.22 in 10.0 mi Calm Calm - N/A   Clear
3:15 AM 55.4 °F 50.0 °F 82% 30.23 in 10.0 mi Calm Calm - N/A   Clear
3:35 AM 55.4 °F 50.0 °F 82% 30.23 in 10.0 mi Calm Calm - N/A   Clear
3:55 AM 55.4 °F 50.0 °F 82% 30.23 in 10.0 mi Calm Calm - N/A   Clear
4:15 AM 55.4 °F 50.0 °F 82% 30.23 in 10.0 mi Calm Calm - N/A   Clear
4:35 AM 53.6 °F 48.2 °F 82% 30.23 in 10.0 mi Calm Calm - N/A   Clear
4:55 AM 51.8 °F 48.2 °F 88% 30.24 in 10.0 mi Calm Calm - N/A   Clear
5:15 AM 51.8 °F 46.4 °F 82% 30.24 in 10.0 mi Calm Calm - N/A   Clear
5:35 AM 51.8 °F 48.2 °F 88% 30.24 in 10.0 mi Calm Calm - N/A   Clear
5:55 AM 53.6 °F 48.2 °F 82% 30.24 in 10.0 mi Calm Calm - N/A   Clear
6:15 AM 53.6 °F 50.0 °F 88% 30.24 in 10.0 mi Calm Calm - N/A   Clear
6:35 AM 53.6 °F 50.0 °F 88% 30.25 in 10.0 mi Calm Calm - N/A   Clear
6:55 AM 55.4 °F 50.0 °F 82% 30.25 in 10.0 mi Calm Calm - N/A   Clear
7:15 AM 57.2 °F 50.0 °F 77% 30.26 in 10.0 mi Calm Calm - N/A   Clear
7:35 AM 59.0 °F 51.8 °F 77% 30.27 in 10.0 mi Calm Calm - N/A   Clear
7:55 AM 59.0 °F 50.0 °F 72% 30.27 in 10.0 mi Calm Calm - N/A   Clear
8:15 AM 60.8 °F 51.8 °F 72% 30.27 in 10.0 mi Calm Calm - N/A   Clear
8:35 AM 60.8 °F 51.8 °F 72% 30.28 in 10.0 mi Calm Calm - N/A   Clear
8:55 AM 62.6 °F 51.8 °F 68% 30.28 in 10.0 mi Calm Calm - N/A   Clear
9:15 AM 64.4 °F 50.0 °F 59% 30.28 in 10.0 mi Calm Calm - N/A   Clear
9:35 AM 68.0 °F 46.4 °F 46% 30.28 in 10.0 mi Calm Calm - N/A   Clear
9:55 AM 69.8 °F 46.4 °F 43% 30.27 in 10.0 mi Calm Calm - N/A   Clear
10:15 AM 71.6 °F 46.4 °F 41% 30.27 in 10.0 mi Calm Calm - N/A   Clear
10:35 AM 73.4 °F 50.0 °F 44% 30.27 in 10.0 mi Calm Calm - N/A   Clear
10:55 AM 77.0 °F 46.4 °F 34% 30.27 in 10.0 mi NW 4.6 mph - N/A   Clear
11:15 AM 78.8 °F 50.0 °F 36% 30.26 in 10.0 mi Calm Calm - N/A   Clear
11:35 AM 80.6 °F 44.6 °F 28% 30.26 in 10.0 mi Calm Calm - N/A   Clear
11:55 AM 82.4 °F 42.8 °F 25% 30.26 in 10.0 mi Calm Calm - N/A   Clear
12:15 PM 87.8 °F 32.0 °F 14% 30.25 in 10.0 mi West 11.5 mph 18.4 mph N/A   Clear
12:35 PM 89.6 °F 32.0 °F 13% 30.25 in 10.0 mi WSW 12.7 mph 16.1 mph N/A   Clear
12:55 PM 89.6 °F 30.2 °F 12% 30.24 in 10.0 mi SW 11.5 mph - N/A   Clear
1:15 PM 91.4 °F 30.2 °F 11% 30.24 in 10.0 mi SW 11.5 mph 17.3 mph N/A   Clear
1:35 PM 89.6 °F 30.2 °F 12% 30.23 in 10.0 mi SW 12.7 mph 21.9 mph N/A   Clear
1:55 PM 91.4 °F 30.2 °F 11% 30.23 in 10.0 mi SSW 11.5 mph 16.1 mph N/A   Clear
2:15 PM 91.4 °F 32.0 °F 12% 30.23 in 10.0 mi SW 13.8 mph 19.6 mph N/A   Clear
2:35 PM 93.2 °F 30.2 °F 11% 30.23 in 10.0 mi SW 15.0 mph - N/A   Clear
2:55 PM 91.4 °F 30.2 °F 11% 30.23 in 10.0 mi WSW 12.7 mph 18.4 mph N/A   Clear
3:15 PM 93.2 °F 30.2 °F 11% 30.23 in 10.0 mi SSW 10.4 mph - N/A   Clear
3:35 PM 93.2 °F 24.8 °F 9% 30.23 in 10.0 mi West 6.9 mph 16.1 mph N/A   Clear
3:55 PM 95.0 °F 28.4 °F 9% 30.22 in 10.0 mi SW 15.0 mph 20.7 mph N/A   Clear
4:15 PM 93.2 °F 28.4 °F 10% 30.22 in 10.0 mi WSW 10.4 mph 16.1 mph N/A   Clear
4:35 PM 93.2 °F 26.6 °F 9% 30.22 in 10.0 mi SW 12.7 mph 19.6 mph N/A   Clear
4:55 PM 93.2 °F 26.6 °F 9% 30.21 in 10.0 mi WSW 10.4 mph 16.1 mph N/A   Clear
5:15 PM 93.2 °F 28.4 °F 10% 30.20 in 10.0 mi WSW 11.5 mph - N/A   Clear
5:35 PM 91.4 °F 24.8 °F 9% 30.20 in 10.0 mi WSW 10.4 mph - N/A   Clear
5:55 PM 91.4 °F 28.4 °F 10% 30.19 in 10.0 mi West 9.2 mph - N/A   Clear
6:15 PM 91.4 °F 26.6 °F 10% 30.19 in 10.0 mi West 8.1 mph - N/A   Clear
6:35 PM 91.4 °F 26.6 °F 10% 30.18 in 10.0 mi WSW 11.5 mph - N/A   Clear
6:55 PM 89.6 °F 28.4 °F 11% 30.18 in 10.0 mi WSW 6.9 mph - N/A   Clear
7:15 PM 89.6 °F 32.0 °F 13% 30.18 in 10.0 mi WSW 4.6 mph - N/A   Clear
7:35 PM 87.8 °F 32.0 °F 14% 30.18 in 10.0 mi WSW 3.5 mph - N/A   Clear
7:55 PM 82.4 °F 37.4 °F 20% 30.18 in 10.0 mi Calm Calm - N/A   Clear
8:15 PM 78.8 °F 35.6 °F 21% 30.18 in 7.0 mi Calm Calm - N/A   Clear
8:35 PM 78.8 °F 33.8 °F 20% 30.19 in 10.0 mi Calm Calm - N/A   Clear
8:55 PM 73.4 °F 37.4 °F 27% 30.19 in 10.0 mi Calm Calm - N/A   Clear
9:15 PM 69.8 °F 41.0 °F 35% 30.20 in 10.0 mi East 3.5 mph - N/A   Clear
9:35 PM 71.6 °F 33.8 °F 25% 30.20 in 10.0 mi Calm Calm - N/A   Clear
9:55 PM 60.8 °F 42.8 °F 52% 30.21 in 10.0 mi ESE 5.8 mph - N/A   Clear
10:15 PM 62.6 °F 41.0 °F 45% 30.22 in 10.0 mi Calm Calm - N/A   Clear
10:35 PM 59.0 °F 42.8 °F 55% 30.23 in 10.0 mi ESE 5.8 mph - N/A   Clear
10:55 PM 60.8 °F 37.4 °F 42% 30.23 in 10.0 mi Calm Calm - N/A   Clear
11:15 PM 55.4 °F 42.8 °F 63% 30.23 in 10.0 mi ESE 5.8 mph - N/A   Clear
11:35 PM 55.4 °F 39.2 °F 54% 30.23 in 10.0 mi Calm Calm - N/A   Clear
11:55 PM 53.6 °F 41.0 °F 62% 30.23 in 10.0 mi Calm Calm - N/A   Clear